sensor_id;sensor_type;location;lat;lon;timestamp;P1;durP1;ratioP1;P2;durP2;ratioP2
62121;SDS011;48108;47.532;19.084;2023-12-07T04:53:32;3.50;;;2.55;;
62121;SDS011;48108;47.532;19.084;2023-12-07T04:56:36;10.05;;;2.85;;
62121;SDS011;48108;47.532;19.084;2023-12-07T04:59:40;2.53;;;2.42;;
62121;SDS011;48108;47.532;19.084;2023-12-07T05:02:43;2.97;;;2.67;;
62121;SDS011;48108;47.532;19.084;2023-12-07T05:05:46;2.85;;;2.05;;
62121;SDS011;48108;47.532;19.084;2023-12-07T05:08:50;3.12;;;2.60;;
62121;SDS011;48108;47.532;19.084;2023-12-07T05:11:53;3.00;;;2.80;;
62121;SDS011;48108;47.532;19.084;2023-12-07T05:14:57;2.90;;;2.67;;
62121;SDS011;48108;47.532;19.084;2023-12-07T05:18:00;2.70;;;2.50;;
62121;SDS011;48108;47.532;19.084;2023-12-07T05:21:03;3.40;;;2.55;;
62121;SDS011;48108;47.532;19.084;2023-12-07T05:24:07;2.28;;;2.15;;
62121;SDS011;48108;47.532;19.084;2023-12-07T05:27:11;2.75;;;2.55;;
62121;SDS011;48108;47.532;19.084;2023-12-07T05:30:14;3.72;;;2.87;;
62121;SDS011;48108;47.532;19.084;2023-12-07T05:33:17;3.33;;;3.03;;
62121;SDS011;48108;47.532;19.084;2023-12-07T05:36:22;2.58;;;2.37;;
62121;SDS011;48108;47.532;19.084;2023-12-07T05:39:25;3.75;;;2.37;;
62121;SDS011;48108;47.532;19.084;2023-12-07T05:42:28;2.62;;;2.42;;
62121;SDS011;48108;47.532;19.084;2023-12-07T05:45:32;2.60;;;2.35;;
62121;SDS011;48108;47.532;19.084;2023-12-07T05:48:34;2.95;;;2.58;;
62121;SDS011;48108;47.532;19.084;2023-12-07T05:51:38;2.87;;;2.67;;
62121;SDS011;48108;47.532;19.084;2023-12-07T05:54:42;3.70;;;3.00;;
62121;SDS011;48108;47.532;19.084;2023-12-07T05:57:46;3.00;;;2.72;;
62121;SDS011;48108;47.532;19.084;2023-12-07T06:00:49;2.42;;;2.10;;
62121;SDS011;48108;47.532;19.084;2023-12-07T06:03:55;3.50;;;3.20;;
62121;SDS011;48108;47.532;19.084;2023-12-07T06:06:57;3.45;;;3.15;;
62121;SDS011;48108;47.532;19.084;2023-12-07T06:10:00;4.35;;;3.20;;
62121;SDS011;48108;47.532;19.084;2023-12-07T06:13:04;4.35;;;3.05;;
62121;SDS011;48108;47.532;19.084;2023-12-07T06:16:11;3.30;;;3.00;;
62121;SDS011;48108;47.532;19.084;2023-12-07T06:19:15;4.20;;;3.05;;
62121;SDS011;48108;47.532;19.084;2023-12-07T06:22:19;3.67;;;3.37;;
62121;SDS011;48108;47.532;19.084;2023-12-07T06:25:22;3.25;;;2.95;;
62121;SDS011;48108;47.532;19.084;2023-12-07T06:28:26;2.90;;;2.70;;
62121;SDS011;48108;47.532;19.084;2023-12-07T06:31:29;3.15;;;2.87;;
62121;SDS011;48108;47.532;19.084;2023-12-07T06:34:34;3.30;;;3.00;;
62121;SDS011;48108;47.532;19.084;2023-12-07T06:37:42;3.85;;;2.87;;
62121;SDS011;48108;47.532;19.084;2023-12-07T06:40:48;5.28;;;3.53;;
62121;SDS011;48108;47.532;19.084;2023-12-07T06:43:51;2.92;;;2.67;;
62121;SDS011;48108;47.532;19.084;2023-12-07T06:46:56;3.03;;;2.83;;
62121;SDS011;48108;47.532;19.084;2023-12-07T06:49:59;4.30;;;2.67;;
62121;SDS011;48108;47.532;19.084;2023-12-07T06:53:02;2.87;;;2.67;;
62121;SDS011;48108;47.532;19.084;2023-12-07T06:56:05;3.25;;;2.83;;
62121;SDS011;48108;47.532;19.084;2023-12-07T06:59:08;3.45;;;2.60;;
62121;SDS011;48108;47.532;19.084;2023-12-07T07:02:13;5.37;;;3.33;;
62121;SDS011;48108;47.532;19.084;2023-12-07T07:05:16;3.60;;;2.90;;
62121;SDS011;48108;47.532;19.084;2023-12-07T07:08:19;6.57;;;3.65;;
62121;SDS011;48108;47.532;19.084;2023-12-07T07:11:22;5.43;;;3.75;;
62121;SDS011;48108;47.532;19.084;2023-12-07T07:14:25;4.53;;;3.55;;
62121;SDS011;48108;47.532;19.084;2023-12-07T07:17:28;6.93;;;4.07;;
62121;SDS011;48108;47.532;19.084;2023-12-07T07:20:32;8.50;;;4.22;;
62121;SDS011;48108;47.532;19.084;2023-12-07T07:23:35;7.78;;;4.10;;
62121;SDS011;48108;47.532;19.084;2023-12-07T07:26:38;6.90;;;4.00;;
62121;SDS011;48108;47.532;19.084;2023-12-07T07:29:53;5.12;;;4.37;;
62121;SDS011;48108;47.532;19.084;2023-12-07T07:32:56;6.15;;;4.65;;
62121;SDS011;48108;47.532;19.084;2023-12-07T07:35:59;7.95;;;4.97;;
62121;SDS011;48108;47.532;19.084;2023-12-07T07:39:03;5.07;;;4.00;;
62121;SDS011;48108;47.532;19.084;2023-12-07T07:42:10;10.02;;;5.15;;
62121;SDS011;48108;47.532;19.084;2023-12-07T07:45:13;7.25;;;4.40;;
62121;SDS011;48108;47.532;19.084;2023-12-07T07:48:17;7.45;;;4.97;;
62121;SDS011;48108;47.532;19.084;2023-12-07T07:51:21;7.82;;;5.15;;
62121;SDS011;48108;47.532;19.084;2023-12-07T08:06:58;6.28;;;4.40;;
62121;SDS011;48108;47.532;19.084;2023-12-07T08:10:06;7.68;;;4.45;;
62121;SDS011;48108;47.532;19.084;2023-12-07T08:13:10;7.40;;;4.20;;
62121;SDS011;48108;47.532;19.084;2023-12-07T08:19:30;6.72;;;5.03;;
62121;SDS011;48108;47.532;19.084;2023-12-07T08:22:33;9.10;;;4.55;;
62121;SDS011;48108;47.532;19.084;2023-12-07T08:25:38;6.57;;;4.53;;
62121;SDS011;48108;47.532;19.084;2023-12-07T08:29:09;6.22;;;4.70;;
62121;SDS011;48108;47.532;19.084;2023-12-07T08:32:12;8.10;;;5.47;;
62121;SDS011;48108;47.532;19.084;2023-12-07T08:35:17;14.85;;;6.15;;
62121;SDS011;48108;47.532;19.084;2023-12-07T08:42:22;10.00;;;5.65;;
62121;SDS011;48108;47.532;19.084;2023-12-07T08:45:25;8.82;;;6.00;;
62121;SDS011;48108;47.532;19.084;2023-12-07T08:48:28;7.03;;;5.22;;
62121;SDS011;48108;47.532;19.084;2023-12-07T08:51:31;9.95;;;6.00;;
62121;SDS011;48108;47.532;19.084;2023-12-07T08:54:34;12.15;;;6.43;;
62121;SDS011;48108;47.532;19.084;2023-12-07T09:30:33;9.18;;;6.05;;
62121;SDS011;48108;47.532;19.084;2023-12-07T09:33:36;11.15;;;6.43;;
62121;SDS011;48108;47.532;19.084;2023-12-07T09:36:39;8.40;;;5.68;;
62121;SDS011;48108;47.532;19.084;2023-12-07T09:39:42;9.90;;;6.72;;
62121;SDS011;48108;47.532;19.084;2023-12-07T09:42:46;11.00;;;7.03;;
62121;SDS011;48108;47.532;19.084;2023-12-07T09:45:49;9.32;;;5.40;;
62121;SDS011;48108;47.532;19.084;2023-12-07T09:48:56;9.57;;;5.60;;
62121;SDS011;48108;47.532;19.084;2023-12-07T09:52:00;8.95;;;5.60;;
62121;SDS011;48108;47.532;19.084;2023-12-07T09:55:06;7.97;;;5.43;;
62121;SDS011;48108;47.532;19.084;2023-12-07T09:58:09;9.43;;;6.10;;
62121;SDS011;48108;47.532;19.084;2023-12-07T10:01:12;13.85;;;7.37;;
62121;SDS011;48108;47.532;19.084;2023-12-07T10:04:20;10.43;;;6.12;;
62121;SDS011;48108;47.532;19.084;2023-12-07T10:07:32;13.10;;;6.83;;
62121;SDS011;48108;47.532;19.084;2023-12-07T10:10:40;9.57;;;6.25;;
62121;SDS011;48108;47.532;19.084;2023-12-07T10:13:43;11.68;;;7.72;;
62121;SDS011;48108;47.532;19.084;2023-12-07T10:16:53;11.23;;;6.57;;
62121;SDS011;48108;47.532;19.084;2023-12-07T10:20:06;7.90;;;5.87;;
62121;SDS011;48108;47.532;19.084;2023-12-07T10:23:14;11.63;;;6.10;;
62121;SDS011;48108;47.532;19.084;2023-12-07T10:26:19;10.85;;;6.53;;
62121;SDS011;48108;47.532;19.084;2023-12-07T10:29:24;11.12;;;6.22;;
62121;SDS011;48108;47.532;19.084;2023-12-07T10:32:38;9.80;;;6.45;;
62121;SDS011;48108;47.532;19.084;2023-12-07T10:35:46;10.85;;;6.12;;
62121;SDS011;48108;47.532;19.084;2023-12-07T10:38:52;9.30;;;6.00;;
62121;SDS011;48108;47.532;19.084;2023-12-07T10:41:56;10.20;;;5.87;;
62121;SDS011;48108;47.532;19.084;2023-12-07T10:45:05;8.82;;;5.75;;
62121;SDS011;48108;47.532;19.084;2023-12-07T10:48:09;8.00;;;4.90;;
62121;SDS011;48108;47.532;19.084;2023-12-07T10:51:20;8.75;;;5.15;;
62121;SDS011;48108;47.532;19.084;2023-12-07T10:58:46;6.95;;;4.90;;
62121;SDS011;48108;47.532;19.084;2023-12-07T11:01:51;6.80;;;4.97;;
62121;SDS011;48108;47.532;19.084;2023-12-07T11:04:55;7.15;;;4.95;;
62121;SDS011;48108;47.532;19.084;2023-12-07T11:11:17;8.07;;;5.10;;
62121;SDS011;48108;47.532;19.084;2023-12-07T11:14:32;7.43;;;5.30;;
62121;SDS011;48108;47.532;19.084;2023-12-07T11:17:57;6.95;;;5.12;;
62121;SDS011;48108;47.532;19.084;2023-12-07T11:21:01;5.78;;;5.18;;
62121;SDS011;48108;47.532;19.084;2023-12-07T11:24:05;8.70;;;5.53;;
62121;SDS011;48108;47.532;19.084;2023-12-07T11:27:08;9.02;;;5.87;;
62121;SDS011;48108;47.532;19.084;2023-12-07T11:30:14;8.88;;;5.80;;
62121;SDS011;48108;47.532;19.084;2023-12-07T11:33:18;9.13;;;5.32;;
62121;SDS011;48108;47.532;19.084;2023-12-07T11:36:21;10.30;;;5.57;;
62121;SDS011;48108;47.532;19.084;2023-12-07T11:39:25;8.70;;;5.37;;
62121;SDS011;48108;47.532;19.084;2023-12-07T11:42:31;10.43;;;5.70;;
62121;SDS011;48108;47.532;19.084;2023-12-07T11:45:38;9.70;;;5.95;;
62121;SDS011;48108;47.532;19.084;2023-12-07T11:48:49;9.40;;;5.90;;
62121;SDS011;48108;47.532;19.084;2023-12-07T11:51:53;9.93;;;5.55;;
62121;SDS011;48108;47.532;19.084;2023-12-07T11:54:58;9.48;;;6.03;;
62121;SDS011;48108;47.532;19.084;2023-12-07T11:58:02;8.45;;;5.40;;
62121;SDS011;48108;47.532;19.084;2023-12-07T12:01:05;9.70;;;6.07;;
62121;SDS011;48108;47.532;19.084;2023-12-07T12:04:10;11.23;;;6.30;;
62121;SDS011;48108;47.532;19.084;2023-12-07T12:07:14;8.00;;;5.60;;
62121;SDS011;48108;47.532;19.084;2023-12-07T12:10:18;8.00;;;5.37;;
62121;SDS011;48108;47.532;19.084;2023-12-07T12:13:29;8.18;;;5.57;;
62121;SDS011;48108;47.532;19.084;2023-12-07T12:16:36;9.02;;;5.82;;
62121;SDS011;48108;47.532;19.084;2023-12-07T12:19:40;9.30;;;5.70;;
62121;SDS011;48108;47.532;19.084;2023-12-07T12:22:44;6.68;;;5.35;;
62121;SDS011;48108;47.532;19.084;2023-12-07T12:25:46;7.93;;;5.30;;
62121;SDS011;48108;47.532;19.084;2023-12-07T12:28:51;7.85;;;4.90;;
62121;SDS011;48108;47.532;19.084;2023-12-07T12:31:55;8.35;;;5.32;;
62121;SDS011;48108;47.532;19.084;2023-12-07T12:34:58;15.18;;;6.97;;
62121;SDS011;48108;47.532;19.084;2023-12-07T12:38:01;14.93;;;7.87;;
62121;SDS011;48108;47.532;19.084;2023-12-07T12:41:04;15.68;;;8.88;;
62121;SDS011;48108;47.532;19.084;2023-12-07T12:44:10;18.08;;;11.00;;
62121;SDS011;48108;47.532;19.084;2023-12-07T12:47:26;19.15;;;11.52;;
62121;SDS011;48108;47.532;19.084;2023-12-07T12:50:33;15.27;;;10.00;;
62121;SDS011;48108;47.532;19.084;2023-12-07T12:53:40;16.62;;;9.50;;
62121;SDS011;48108;47.532;19.084;2023-12-07T12:56:51;19.48;;;11.25;;
62121;SDS011;48108;47.532;19.084;2023-12-07T12:59:55;15.02;;;9.50;;
62121;SDS011;48108;47.532;19.084;2023-12-07T13:02:57;23.55;;;11.00;;
62121;SDS011;48108;47.532;19.084;2023-12-07T13:06:01;18.95;;;10.77;;
62121;SDS011;48108;47.532;19.084;2023-12-07T13:09:05;16.62;;;9.80;;
62121;SDS011;48108;47.532;19.084;2023-12-07T13:12:08;17.45;;;10.82;;
62121;SDS011;48108;47.532;19.084;2023-12-07T13:15:12;22.65;;;10.93;;
62121;SDS011;48108;47.532;19.084;2023-12-07T13:18:15;20.73;;;10.13;;
62121;SDS011;48108;47.532;19.084;2023-12-07T13:21:18;17.98;;;9.88;;
62121;SDS011;48108;47.532;19.084;2023-12-07T13:24:21;20.50;;;11.48;;
62121;SDS011;48108;47.532;19.084;2023-12-07T13:27:24;18.90;;;11.05;;
62121;SDS011;48108;47.532;19.084;2023-12-07T13:30:28;17.73;;;10.23;;
62121;SDS011;48108;47.532;19.084;2023-12-07T13:33:32;21.08;;;11.73;;
62121;SDS011;48108;47.532;19.084;2023-12-07T13:36:44;24.33;;;12.05;;
62121;SDS011;48108;47.532;19.084;2023-12-07T13:39:47;26.25;;;12.35;;
62121;SDS011;48108;47.532;19.084;2023-12-07T13:42:58;22.60;;;12.60;;
62121;SDS011;48108;47.532;19.084;2023-12-07T13:46:00;18.42;;;11.70;;
62121;SDS011;48108;47.532;19.084;2023-12-07T13:49:04;21.23;;;11.80;;
62121;SDS011;48108;47.532;19.084;2023-12-07T13:52:11;18.10;;;9.52;;
62121;SDS011;48108;47.532;19.084;2023-12-07T13:55:13;15.60;;;8.77;;
62121;SDS011;48108;47.532;19.084;2023-12-07T13:58:17;15.25;;;8.73;;
62121;SDS011;48108;47.532;19.084;2023-12-07T14:01:20;14.38;;;8.00;;
62121;SDS011;48108;47.532;19.084;2023-12-07T14:04:24;16.55;;;9.40;;
62121;SDS011;48108;47.532;19.084;2023-12-07T14:07:31;18.83;;;9.00;;
62121;SDS011;48108;47.532;19.084;2023-12-07T14:10:34;14.18;;;8.73;;
62121;SDS011;48108;47.532;19.084;2023-12-07T14:13:36;16.12;;;8.90;;
62121;SDS011;48108;47.532;19.084;2023-12-07T14:16:42;19.23;;;9.95;;
62121;SDS011;48108;47.532;19.084;2023-12-07T14:20:04;14.98;;;7.97;;
62121;SDS011;48108;47.532;19.084;2023-12-07T14:23:29;14.82;;;8.35;;
62121;SDS011;48108;47.532;19.084;2023-12-07T14:26:32;11.02;;;7.40;;
62121;SDS011;48108;47.532;19.084;2023-12-07T14:29:36;14.75;;;7.95;;
62121;SDS011;48108;47.532;19.084;2023-12-07T14:32:39;12.27;;;8.15;;
62121;SDS011;48108;47.532;19.084;2023-12-07T14:35:46;19.33;;;9.95;;
62121;SDS011;48108;47.532;19.084;2023-12-07T14:38:51;19.55;;;11.12;;
62121;SDS011;48108;47.532;19.084;2023-12-07T14:41:54;19.83;;;10.40;;
62121;SDS011;48108;47.532;19.084;2023-12-07T14:44:58;27.08;;;11.05;;
62121;SDS011;48108;47.532;19.084;2023-12-07T14:48:04;21.90;;;11.27;;
62121;SDS011;48108;47.532;19.084;2023-12-07T14:51:08;21.15;;;12.00;;
62121;SDS011;48108;47.532;19.084;2023-12-07T14:54:11;20.52;;;12.45;;
62121;SDS011;48108;47.532;19.084;2023-12-07T14:57:21;19.95;;;10.93;;
62121;SDS011;48108;47.532;19.084;2023-12-07T15:00:24;25.65;;;12.90;;
62121;SDS011;48108;47.532;19.084;2023-12-07T15:03:28;26.33;;;13.00;;
62121;SDS011;48108;47.532;19.084;2023-12-07T15:06:32;18.67;;;11.05;;
62121;SDS011;48108;47.532;19.084;2023-12-07T15:09:36;20.92;;;10.80;;
62121;SDS011;48108;47.532;19.084;2023-12-07T15:12:40;16.45;;;10.02;;
62121;SDS011;48108;47.532;19.084;2023-12-07T15:15:43;17.83;;;9.75;;
62121;SDS011;48108;47.532;19.084;2023-12-07T15:18:47;14.70;;;8.48;;
62121;SDS011;48108;47.532;19.084;2023-12-07T15:21:50;24.48;;;12.95;;
62121;SDS011;48108;47.532;19.084;2023-12-07T15:24:53;20.90;;;11.73;;
62121;SDS011;48108;47.532;19.084;2023-12-07T15:27:56;21.23;;;11.50;;
62121;SDS011;48108;47.532;19.084;2023-12-07T15:31:00;19.83;;;10.98;;
62121;SDS011;48108;47.532;19.084;2023-12-07T15:34:03;20.27;;;11.00;;
62121;SDS011;48108;47.532;19.084;2023-12-07T15:37:08;19.40;;;10.68;;
62121;SDS011;48108;47.532;19.084;2023-12-07T15:40:16;25.33;;;11.82;;
62121;SDS011;48108;47.532;19.084;2023-12-07T15:43:20;21.62;;;11.85;;
62121;SDS011;48108;47.532;19.084;2023-12-07T15:46:22;21.20;;;11.38;;
62121;SDS011;48108;47.532;19.084;2023-12-07T15:49:26;24.00;;;13.48;;
62121;SDS011;48108;47.532;19.084;2023-12-07T15:52:29;24.90;;;13.02;;
62121;SDS011;48108;47.532;19.084;2023-12-07T15:55:33;30.10;;;15.63;;
62121;SDS011;48108;47.532;19.084;2023-12-07T15:58:36;28.08;;;13.82;;
62121;SDS011;48108;47.532;19.084;2023-12-07T16:01:39;28.48;;;13.27;;
62121;SDS011;48108;47.532;19.084;2023-12-07T16:04:42;26.67;;;13.88;;
62121;SDS011;48108;47.532;19.084;2023-12-07T16:07:45;24.50;;;13.48;;
62121;SDS011;48108;47.532;19.084;2023-12-07T16:10:48;19.77;;;11.15;;
62121;SDS011;48108;47.532;19.084;2023-12-07T16:13:51;19.58;;;11.63;;
62121;SDS011;48108;47.532;19.084;2023-12-07T16:16:54;22.55;;;10.77;;
62121;SDS011;48108;47.532;19.084;2023-12-07T16:19:57;18.98;;;9.65;;
62121;SDS011;48108;47.532;19.084;2023-12-07T16:23:00;15.77;;;9.05;;
62121;SDS011;48108;47.532;19.084;2023-12-07T16:26:03;12.50;;;7.82;;
62121;SDS011;48108;47.532;19.084;2023-12-07T16:29:06;14.95;;;8.77;;
62121;SDS011;48108;47.532;19.084;2023-12-07T16:32:09;15.07;;;8.30;;
62121;SDS011;48108;47.532;19.084;2023-12-07T16:35:13;18.65;;;8.35;;
62121;SDS011;48108;47.532;19.084;2023-12-07T16:38:16;19.85;;;9.15;;
62121;SDS011;48108;47.532;19.084;2023-12-07T16:41:19;20.50;;;9.90;;
62121;SDS011;48108;47.532;19.084;2023-12-07T16:44:23;17.60;;;8.77;;
62121;SDS011;48108;47.532;19.084;2023-12-07T16:47:26;20.08;;;10.75;;
62121;SDS011;48108;47.532;19.084;2023-12-07T16:50:30;15.85;;;9.95;;
62121;SDS011;48108;47.532;19.084;2023-12-07T16:53:34;18.40;;;9.82;;
62121;SDS011;48108;47.532;19.084;2023-12-07T16:56:37;18.85;;;10.43;;
62121;SDS011;48108;47.532;19.084;2023-12-07T16:59:41;14.90;;;8.63;;
